createdAt,value
2023-06-10T00:00:07.656Z,11.45
2023-06-10T00:02:41.073Z,11.56
2023-06-10T00:05:10.114Z,11.54
2023-06-10T00:07:39.361Z,11.55
2023-06-10T00:10:07.932Z,11.54
2023-06-10T00:12:39.542Z,11.53
2023-06-10T00:15:08.919Z,11.54
2023-06-10T00:17:41.035Z,11.55
2023-06-10T00:20:14.973Z,11.70
2023-06-10T00:22:47.209Z,11.60
2023-06-10T00:25:15.389Z,11.63
2023-06-10T00:27:43.065Z,11.72
2023-06-10T00:30:11.323Z,11.77
2023-06-10T00:32:39.381Z,11.86
2023-06-10T00:35:08.257Z,11.93
2023-06-10T00:37:37.385Z,12.02
2023-06-10T00:40:06.734Z,12.11
2023-06-10T00:42:34.818Z,12.06
2023-06-10T00:45:02.600Z,12.14
2023-06-10T00:47:33.234Z,12.16
2023-06-10T00:50:01.434Z,12.15
2023-06-10T00:52:32.720Z,12.07
2023-06-10T00:55:01.172Z,12.13
2023-06-10T00:57:30.748Z,12.07
2023-06-10T00:59:59.042Z,12.05
2023-06-10T01:02:29.160Z,12.06
2023-06-10T01:05:03.236Z,12.04
2023-06-10T01:07:58.291Z,12.31
2023-06-10T01:10:50.786Z,12.27
2023-06-10T01:13:19.503Z,12.07
2023-06-10T01:15:47.282Z,12.08
2023-06-10T01:18:16.625Z,12.14
2023-06-10T01:20:45.838Z,12.16
2023-06-10T01:23:13.550Z,12.16
2023-06-10T01:26:06.482Z,12.46
2023-06-10T01:28:55.417Z,12.75
2023-06-10T01:31:35.485Z,12.54
2023-06-10T01:34:07.813Z,12.37
2023-06-10T01:36:38.042Z,12.40
2023-06-10T01:39:07.500Z,12.36
2023-06-10T01:41:36.889Z,12.17
2023-06-10T01:44:05.671Z,12.31
2023-06-10T01:46:33.629Z,12.34
2023-06-10T01:49:01.538Z,12.28
2023-06-10T01:51:29.378Z,12.35
2023-06-10T01:53:57.200Z,12.46
2023-06-10T01:56:25.119Z,12.49
2023-06-10T01:58:52.899Z,12.58
2023-06-10T02:01:20.863Z,12.62
2023-06-10T02:03:48.697Z,12.66
2023-06-10T02:06:16.671Z,12.79
2023-06-10T02:08:44.476Z,12.85
2023-06-10T02:11:12.259Z,12.91
2023-06-10T02:13:40.335Z,12.99
2023-06-10T02:16:08.522Z,13.12
2023-06-10T02:18:36.531Z,13.25
2023-06-10T02:21:04.463Z,13.38
2023-06-10T02:23:32.153Z,13.49
2023-06-10T02:25:59.855Z,13.69
2023-06-10T02:28:27.474Z,13.83
2023-06-10T02:30:55.278Z,13.91
2023-06-10T02:33:23.406Z,14.00
2023-06-10T02:35:51.875Z,14.07
2023-06-10T02:38:19.850Z,14.15
2023-06-10T02:40:47.582Z,14.42
2023-06-10T02:43:15.331Z,14.50
2023-06-10T02:45:46.721Z,14.64
2023-06-10T02:48:15.292Z,14.71
2023-06-10T02:50:43.098Z,14.80
2023-06-10T02:53:30.974Z,15.02
2023-06-10T02:56:06.389Z,15.17
2023-06-10T02:58:34.369Z,15.42
2023-06-10T03:01:03.058Z,15.68
2023-06-10T03:03:43.302Z,16.12
2023-06-10T03:06:14.651Z,17.41
2023-06-10T03:08:43.366Z,19.12
2023-06-10T03:11:15.652Z,20.63
2023-06-10T03:13:43.917Z,21.99
2023-06-10T03:16:14.896Z,22.77
2023-06-10T03:18:43.509Z,23.73
2023-06-10T03:21:12.698Z,24.55
2023-06-10T03:23:42.971Z,25.37
2023-06-10T03:26:15.782Z,25.85
2023-06-10T03:28:46.631Z,26.53
2023-06-10T03:31:14.312Z,27.49
2023-06-10T03:33:43.164Z,27.91
2023-06-10T03:36:11.277Z,28.64
2023-06-10T03:38:39.348Z,28.98
2023-06-10T03:41:09.812Z,29.40
2023-06-10T03:43:42.087Z,29.83
2023-06-10T03:46:10.464Z,29.76
2023-06-10T03:48:40.275Z,29.59
2023-06-10T03:51:08.683Z,29.47
2023-06-10T03:53:36.600Z,29.67
2023-06-10T03:56:04.573Z,29.80
2023-06-10T03:58:32.524Z,30.29
2023-06-10T04:01:00.614Z,30.30
2023-06-10T04:03:34.825Z,31.11
2023-06-10T04:06:04.045Z,31.55
2023-06-10T04:08:32.884Z,32.03
2023-06-10T04:11:01.883Z,32.47
2023-06-10T04:13:30.000Z,33.06
2023-06-10T04:16:00.796Z,33.03
2023-06-10T04:18:29.073Z,33.04
2023-06-10T04:21:00.451Z,33.03
2023-06-10T04:23:28.288Z,33.02
2023-06-10T04:25:56.157Z,32.92
2023-06-10T04:28:25.992Z,32.92
2023-06-10T04:30:55.089Z,32.73
2023-06-10T04:33:23.177Z,32.44
2023-06-10T04:35:52.012Z,32.50
2023-06-10T04:38:22.803Z,32.69
2023-06-10T04:40:50.660Z,32.75
2023-06-10T04:43:20.209Z,32.77
2023-06-10T04:45:48.628Z,32.83
2023-06-10T04:48:16.854Z,32.59
2023-06-10T04:50:44.702Z,32.61
2023-06-10T04:53:12.771Z,32.90
2023-06-10T04:55:45.390Z,33.01
2023-06-10T04:58:13.202Z,32.94
2023-06-10T05:00:41.041Z,32.99
2023-06-10T05:03:08.939Z,33.20
2023-06-10T05:05:36.674Z,33.26
2023-06-10T05:08:06.780Z,33.39
2023-06-10T05:10:36.421Z,33.47
2023-06-10T05:13:04.612Z,33.71
2023-06-10T05:15:32.542Z,34.18
2023-06-10T05:18:00.336Z,34.26
2023-06-10T05:20:29.831Z,33.44
2023-06-10T05:22:57.519Z,33.42
2023-06-10T05:25:26.990Z,33.43
2023-06-10T05:27:54.711Z,33.10
2023-06-10T05:30:22.759Z,32.71
2023-06-10T05:32:50.508Z,32.43
2023-06-10T05:35:18.416Z,32.57
2023-06-10T05:37:46.478Z,32.11
2023-06-10T05:40:14.304Z,32.07
2023-06-10T05:42:42.053Z,31.93
2023-06-10T05:45:10.632Z,32.44
2023-06-10T05:47:38.696Z,32.63
2023-06-10T05:50:10.251Z,32.41
2023-06-10T05:52:38.743Z,31.87
2023-06-10T05:55:07.404Z,31.56
2023-06-10T05:57:35.461Z,31.21
2023-06-10T06:00:03.127Z,30.54
2023-06-10T06:02:40.482Z,30.30
2023-06-10T06:05:08.723Z,30.22
2023-06-10T06:07:36.860Z,29.98
2023-06-10T06:10:04.809Z,29.84
2023-06-10T06:12:32.708Z,29.67
2023-06-10T06:15:00.299Z,29.56
2023-06-10T06:17:28.206Z,29.55
2023-06-10T06:19:55.846Z,29.71
2023-06-10T06:22:23.759Z,29.66
2023-06-10T06:24:52.396Z,29.55
2023-06-10T06:27:20.269Z,29.29
2023-06-10T06:29:48.123Z,29.11
2023-06-10T06:32:16.408Z,29.02
2023-06-10T06:34:44.007Z,28.83
2023-06-10T06:37:11.778Z,28.08
2023-06-10T06:39:42.865Z,27.90
2023-06-10T06:42:10.445Z,27.53
2023-06-10T06:45:01.768Z,27.41
2023-06-10T06:47:32.399Z,27.45
2023-06-10T06:50:00.210Z,27.64
2023-06-10T06:52:27.838Z,27.93
2023-06-10T06:54:55.534Z,28.92
2023-06-10T06:57:24.566Z,29.70
2023-06-10T06:59:52.368Z,30.34
2023-06-10T07:02:20.563Z,30.68
2023-06-10T07:04:51.148Z,30.51
2023-06-10T07:07:18.820Z,30.73
2023-06-10T07:09:46.449Z,31.53
2023-06-10T07:12:14.221Z,32.01
2023-06-10T07:14:41.846Z,32.12
2023-06-10T07:17:09.930Z,32.37
2023-06-10T07:19:37.641Z,32.20
2023-06-10T07:22:05.578Z,32.30
2023-06-10T07:24:33.211Z,32.25
2023-06-10T07:27:01.017Z,31.67
2023-06-10T07:29:28.719Z,31.43
2023-06-10T07:31:56.451Z,31.50
2023-06-10T07:34:24.073Z,31.33
2023-06-10T07:36:51.840Z,30.85
2023-06-10T07:39:19.550Z,30.54
2023-06-10T07:41:47.443Z,30.48
2023-06-10T07:44:15.268Z,30.47
2023-06-10T07:46:42.888Z,30.45
2023-06-10T07:49:10.658Z,29.89
2023-06-10T07:51:38.340Z,29.46
2023-06-10T07:54:06.120Z,29.86
2023-06-10T07:56:33.885Z,29.86
2023-06-10T07:59:01.468Z,29.92
2023-06-10T08:01:29.192Z,30.21
2023-06-10T08:03:57.020Z,30.40
2023-06-10T08:06:24.804Z,30.36
2023-06-10T08:08:52.549Z,29.55
2023-06-10T08:11:20.254Z,28.91
2023-06-10T08:13:47.996Z,29.53
2023-06-10T08:16:15.779Z,29.72
2023-06-10T08:18:43.409Z,29.81
2023-06-10T08:21:11.156Z,30.05
2023-06-10T08:23:39.054Z,29.83
2023-06-10T08:26:06.769Z,29.64
2023-06-10T08:28:34.406Z,28.61
2023-06-10T08:31:02.320Z,28.69
2023-06-10T08:33:30.108Z,28.11
2023-06-10T08:35:57.751Z,28.45
2023-06-10T08:38:25.294Z,28.58
2023-06-10T08:41:02.204Z,29.07
2023-06-10T08:43:41.248Z,28.91
2023-06-10T08:46:10.990Z,28.83
2023-06-10T08:48:44.832Z,29.37
2023-06-10T08:51:13.552Z,29.18
2023-06-10T08:53:52.282Z,29.10
2023-06-10T08:56:20.728Z,29.08
2023-06-10T08:58:49.505Z,29.08
2023-06-10T09:01:18.279Z,29.04
2023-06-10T09:03:46.047Z,28.47
2023-06-10T09:06:14.817Z,27.64
2023-06-10T09:08:43.674Z,28.32
2023-06-10T09:11:11.424Z,28.86
2023-06-10T09:13:39.200Z,28.92
2023-06-10T09:16:06.890Z,28.91
2023-06-10T09:18:36.065Z,28.68
2023-06-10T09:21:03.678Z,28.70
2023-06-10T09:23:32.350Z,28.02
2023-06-10T09:26:00.887Z,28.02
2023-06-10T09:28:28.866Z,28.14
2023-06-10T09:31:07.153Z,28.41
2023-06-10T09:33:39.930Z,28.35
2023-06-10T09:36:07.938Z,28.52
2023-06-10T09:38:36.468Z,28.50
2023-06-10T09:41:05.045Z,28.30
2023-06-10T09:43:47.764Z,28.98
2023-06-10T09:46:19.905Z,28.31
2023-06-10T09:48:49.442Z,28.28
2023-06-10T09:51:20.683Z,28.17
2023-06-10T09:53:55.309Z,28.78
2023-06-10T09:56:24.622Z,28.92
2023-06-10T09:58:55.176Z,29.00
2023-06-10T10:01:23.502Z,28.59
2023-06-10T10:03:52.679Z,29.03
2023-06-10T10:06:21.494Z,28.68
2023-06-10T10:08:51.280Z,28.46
2023-06-10T10:11:20.388Z,27.95
2023-06-10T10:13:50.102Z,27.45
2023-06-10T10:16:40.079Z,27.82
2023-06-10T10:19:22.499Z,27.52
2023-06-10T10:22:12.363Z,27.76
2023-06-10T10:24:50.953Z,27.67
2023-06-10T10:27:30.068Z,28.09
2023-06-10T10:30:00.460Z,27.77
2023-06-10T10:32:37.635Z,27.82
2023-06-10T10:35:16.766Z,27.64
2023-06-10T10:37:45.163Z,27.52
2023-06-10T10:40:14.086Z,27.31
2023-06-10T10:42:42.474Z,27.21
2023-06-10T10:45:11.746Z,27.29
2023-06-10T10:47:40.833Z,27.45
2023-06-10T10:50:20.259Z,27.56
2023-06-10T10:53:02.005Z,27.69
2023-06-10T10:55:30.478Z,27.27
2023-06-10T10:58:09.165Z,27.42
2023-06-10T11:00:39.554Z,27.17
2023-06-10T11:03:11.420Z,27.26
2023-06-10T11:05:43.370Z,27.56
2023-06-10T11:08:11.573Z,27.44
2023-06-10T11:10:52.534Z,27.39
2023-06-10T11:13:24.137Z,27.49
2023-06-10T11:15:52.682Z,27.29
2023-06-10T11:18:40.714Z,27.45
2023-06-10T11:21:08.405Z,26.95
2023-06-10T11:23:39.715Z,26.96
2023-06-10T11:26:32.677Z,27.25
2023-06-10T11:29:00.490Z,26.83
2023-06-10T11:31:35.385Z,26.93
2023-06-10T11:34:06.163Z,26.68
2023-06-10T11:36:37.995Z,26.72
2023-06-10T11:39:07.549Z,26.71
2023-06-10T11:41:36.588Z,26.61
2023-06-10T11:44:19.399Z,26.86
2023-06-10T11:46:50.619Z,26.64
2023-06-10T11:49:19.596Z,26.64
2023-06-10T11:51:51.432Z,26.67
2023-06-10T11:54:19.634Z,26.65
2023-06-10T11:56:48.083Z,26.54
2023-06-10T11:59:16.068Z,26.52
2023-06-10T12:01:45.977Z,26.59
2023-06-10T12:04:17.184Z,26.57
2023-06-10T12:06:51.419Z,26.54
2023-06-10T12:09:28.044Z,26.52
2023-06-10T12:12:04.318Z,26.31
2023-06-10T12:15:00.718Z,26.55
2023-06-10T12:17:35.723Z,26.09
2023-06-10T12:20:26.102Z,26.20
2023-06-10T12:22:53.784Z,25.90
2023-06-10T12:25:28.261Z,25.93
2023-06-10T12:27:58.734Z,25.73
2023-06-10T12:30:28.097Z,25.60
2023-06-10T12:32:59.486Z,25.48
2023-06-10T12:35:29.036Z,25.47
2023-06-10T12:38:03.920Z,25.55
2023-06-10T12:40:33.605Z,25.43
2023-06-10T12:43:02.617Z,25.40
2023-06-10T12:45:34.676Z,25.38
2023-06-10T12:48:10.778Z,25.52
2023-06-10T12:50:43.623Z,25.56
2023-06-10T12:53:13.148Z,25.50
2023-06-10T12:55:41.255Z,25.48
2023-06-10T12:58:09.024Z,25.43
2023-06-10T13:00:37.524Z,25.35
2023-06-10T13:03:07.331Z,25.30
2023-06-10T13:05:35.370Z,25.21
2023-06-10T13:08:03.325Z,25.16
2023-06-10T13:10:31.296Z,25.08
2023-06-10T13:12:58.983Z,24.97
2023-06-10T13:15:27.936Z,24.91
2023-06-10T13:17:55.705Z,24.88
2023-06-10T13:20:24.133Z,24.79
2023-06-10T13:22:51.919Z,24.68
2023-06-10T13:25:19.642Z,24.57
2023-06-10T13:27:47.330Z,24.54
2023-06-10T13:30:15.404Z,24.50
2023-06-10T13:32:43.184Z,24.44
2023-06-10T13:35:11.261Z,24.37
2023-06-10T13:37:39.304Z,24.31
2023-06-10T13:40:09.284Z,24.21
2023-06-10T13:42:37.639Z,24.16
2023-06-10T13:45:06.468Z,24.12
2023-06-10T13:47:34.310Z,24.05
2023-06-10T13:50:02.063Z,23.97
2023-06-10T13:52:31.881Z,23.95
2023-06-10T13:54:59.586Z,23.84
2023-06-10T13:57:27.307Z,23.73
2023-06-10T13:59:55.150Z,23.61
2023-06-10T14:02:22.971Z,23.49
2023-06-10T14:04:50.556Z,23.44
2023-06-10T14:07:18.663Z,23.37
2023-06-10T14:09:46.709Z,23.40
2023-06-10T14:12:14.383Z,23.30
2023-06-10T14:14:42.043Z,23.31
2023-06-10T14:17:09.784Z,23.33
2023-06-10T14:19:37.468Z,23.20
2023-06-10T14:22:08.008Z,23.11
2023-06-10T14:24:40.088Z,23.05
2023-06-10T14:27:08.197Z,22.86
2023-06-10T14:29:36.599Z,22.75
2023-06-10T14:32:06.369Z,22.69
2023-06-10T14:34:36.292Z,22.54
2023-06-10T14:37:08.907Z,22.48
2023-06-10T14:39:37.223Z,22.44
2023-06-10T14:42:05.269Z,22.35
2023-06-10T14:44:33.022Z,22.28
2023-06-10T14:47:00.820Z,22.22
2023-06-10T14:49:28.508Z,22.19
2023-06-10T14:51:56.180Z,22.11
2023-06-10T14:54:23.839Z,22.07
2023-06-10T14:56:51.644Z,22.04
2023-06-10T14:59:19.416Z,21.99
2023-06-10T15:01:47.090Z,21.92
2023-06-10T15:04:14.861Z,21.93
2023-06-10T15:06:43.825Z,21.89
2023-06-10T15:09:11.488Z,21.85
2023-06-10T15:11:39.449Z,21.83
2023-06-10T15:14:07.754Z,21.83
2023-06-10T15:16:35.563Z,21.86
2023-06-10T15:19:03.375Z,21.62
2023-06-10T15:21:30.973Z,21.39
2023-06-10T15:23:58.686Z,21.23
2023-06-10T15:26:26.845Z,20.98
2023-06-10T15:28:54.750Z,20.56
2023-06-10T15:31:22.459Z,20.41
2023-06-10T15:33:50.173Z,20.47
2023-06-10T15:36:17.774Z,20.51
2023-06-10T15:38:45.566Z,20.56
2023-06-10T15:41:13.369Z,20.64
2023-06-10T15:43:41.824Z,20.53
2023-06-10T15:46:09.525Z,20.19
2023-06-10T15:48:37.345Z,20.03
2023-06-10T15:51:05.088Z,19.75
2023-06-10T15:53:32.658Z,19.44
2023-06-10T15:56:00.465Z,19.20
2023-06-10T15:58:28.522Z,19.12
2023-06-10T16:00:56.182Z,19.46
2023-06-10T16:03:23.974Z,19.14
2023-06-10T16:05:51.670Z,19.14
2023-06-10T16:08:19.376Z,18.91
2023-06-10T16:10:46.985Z,18.82
2023-06-10T16:13:14.634Z,18.95
2023-06-10T16:15:42.378Z,19.09
2023-06-10T16:18:10.125Z,19.10
2023-06-10T16:20:37.886Z,19.20
2023-06-10T16:23:06.494Z,19.40
2023-06-10T16:25:35.436Z,19.46
2023-06-10T16:28:04.560Z,19.33
2023-06-10T16:30:34.108Z,19.38
2023-06-10T16:33:02.188Z,19.21
2023-06-10T16:35:29.906Z,19.05
2023-06-10T16:37:58.521Z,19.11
2023-06-10T16:40:27.316Z,19.00
2023-06-10T16:42:55.151Z,18.84
2023-06-10T16:45:23.043Z,18.60
2023-06-10T16:47:51.250Z,18.47
2023-06-10T16:50:18.942Z,18.29
2023-06-10T16:52:46.522Z,18.23
2023-06-10T16:55:14.306Z,18.25
2023-06-10T16:57:41.964Z,18.31
2023-06-10T17:00:10.336Z,18.26
2023-06-10T17:02:38.293Z,18.04
2023-06-10T17:05:06.865Z,17.98
2023-06-10T17:07:35.846Z,17.96
2023-06-10T17:10:05.160Z,17.89
2023-06-10T17:12:32.988Z,17.90
2023-06-10T17:15:00.688Z,18.11
2023-06-10T17:17:29.262Z,18.11
2023-06-10T17:19:56.935Z,18.12
2023-06-10T17:22:24.602Z,18.21
2023-06-10T17:24:52.236Z,18.30
2023-06-10T17:27:20.056Z,18.26
2023-06-10T17:29:48.142Z,18.24
2023-06-10T17:32:16.294Z,18.23
2023-06-10T17:34:44.133Z,18.30
2023-06-10T17:37:11.720Z,18.30
2023-06-10T17:39:39.431Z,18.35
2023-06-10T17:42:07.568Z,18.38
2023-06-10T17:44:35.363Z,18.39
2023-06-10T17:47:03.879Z,18.41
2023-06-10T17:49:33.022Z,18.36
2023-06-10T17:52:01.372Z,18.36
2023-06-10T17:54:29.206Z,18.46
2023-06-10T17:56:57.185Z,18.56
2023-06-10T17:59:24.930Z,18.61
2023-06-10T18:01:52.740Z,18.61
2023-06-10T18:04:20.640Z,18.50
2023-06-10T18:06:48.753Z,18.45
2023-06-10T18:09:16.470Z,18.53
2023-06-10T18:11:44.106Z,18.53
2023-06-10T18:14:11.902Z,18.58
2023-06-10T18:16:39.639Z,18.59
2023-06-10T18:19:07.426Z,18.53
2023-06-10T18:21:35.205Z,18.46
2023-06-10T18:24:03.111Z,18.47
2023-06-10T18:26:31.071Z,18.41
2023-06-10T18:28:58.840Z,18.39
2023-06-10T18:31:26.578Z,18.38
2023-06-10T18:33:55.825Z,18.35
2023-06-10T18:36:23.595Z,18.32
2023-06-10T18:38:52.052Z,18.37
2023-06-10T18:41:19.684Z,18.37
2023-06-10T18:43:47.456Z,18.38
2023-06-10T18:46:15.277Z,18.41
2023-06-10T18:48:45.087Z,18.41
2023-06-10T18:51:12.710Z,18.43
2023-06-10T18:53:40.354Z,18.44
2023-06-10T18:56:08.048Z,18.46
2023-06-10T18:58:38.650Z,18.45
2023-06-10T19:01:06.521Z,18.47
2023-06-10T19:03:34.403Z,18.48
2023-06-10T19:06:02.106Z,18.52
2023-06-10T19:08:30.079Z,18.55
2023-06-10T19:10:57.879Z,18.57
2023-06-10T19:13:28.684Z,18.63
2023-06-10T19:15:56.640Z,18.62
2023-06-10T19:18:24.321Z,18.53
2023-06-10T19:20:52.598Z,18.59
2023-06-10T19:23:20.684Z,18.61
2023-06-10T19:25:48.471Z,18.63
2023-06-10T19:28:16.315Z,18.63
2023-06-10T19:30:45.037Z,18.69
2023-06-10T19:33:12.963Z,18.69
2023-06-10T19:35:42.649Z,18.66
2023-06-10T19:38:10.546Z,18.70
2023-06-10T19:40:38.346Z,18.68
2023-06-10T19:43:06.524Z,18.70
2023-06-10T19:45:34.151Z,18.70
2023-06-10T19:48:01.907Z,18.70
2023-06-10T19:50:29.802Z,18.69
2023-06-10T19:52:57.505Z,18.68
2023-06-10T19:55:25.221Z,18.67
2023-06-10T19:57:56.438Z,18.63
2023-06-10T20:00:24.321Z,18.65
2023-06-10T20:02:51.969Z,18.66
2023-06-10T20:05:19.686Z,18.66
2023-06-10T20:07:47.573Z,18.67
2023-06-10T20:10:17.095Z,18.70
2023-06-10T20:12:44.730Z,18.71
2023-06-10T20:15:12.686Z,18.70
2023-06-10T20:17:40.634Z,18.73
2023-06-10T20:20:09.301Z,18.75
2023-06-10T20:22:37.228Z,18.76
2023-06-10T20:25:05.264Z,18.73
2023-06-10T20:27:33.076Z,18.78
2023-06-10T20:30:01.073Z,18.71
2023-06-10T20:32:32.638Z,18.73
2023-06-10T20:35:00.484Z,18.71
2023-06-10T20:37:28.529Z,18.67
2023-06-10T20:39:56.197Z,18.65
2023-06-10T20:42:23.984Z,18.59
2023-06-10T20:44:52.217Z,18.65
2023-06-10T20:47:19.940Z,18.63
2023-06-10T20:49:48.035Z,18.55
2023-06-10T20:52:15.886Z,18.62
2023-06-10T20:54:43.660Z,18.63
2023-06-10T20:57:11.477Z,18.64
2023-06-10T20:59:39.126Z,18.60
2023-06-10T21:02:07.580Z,18.60
2023-06-10T21:04:35.347Z,18.54
2023-06-10T21:07:03.167Z,18.56
2023-06-10T21:09:31.041Z,18.55
2023-06-10T21:11:58.914Z,18.51
2023-06-10T21:14:26.935Z,18.45
2023-06-10T21:16:54.677Z,18.43
2023-06-10T21:19:22.289Z,18.45
2023-06-10T21:21:50.178Z,18.44
2023-06-10T21:24:18.095Z,18.30
2023-06-10T21:26:46.060Z,18.26
2023-06-10T21:29:14.199Z,18.30
2023-06-10T21:31:42.503Z,18.14
2023-06-10T21:34:10.230Z,18.15
2023-06-10T21:36:37.844Z,18.21
2023-06-10T21:39:05.986Z,18.17
2023-06-10T21:41:34.004Z,18.18
2023-06-10T21:44:01.731Z,18.19
2023-06-10T21:46:29.545Z,18.16
2023-06-10T21:48:57.486Z,18.11
2023-06-10T21:51:25.278Z,18.06
2023-06-10T21:53:53.003Z,18.06
2023-06-10T21:56:20.799Z,17.98
2023-06-10T21:58:51.498Z,18.00
2023-06-10T22:01:19.478Z,18.01
2023-06-10T22:03:47.307Z,18.02
2023-06-10T22:06:16.013Z,18.02
2023-06-10T22:08:43.716Z,18.03
2023-06-10T22:11:11.322Z,18.01
2023-06-10T22:13:39.062Z,17.99
2023-06-10T22:16:06.677Z,17.92
2023-06-10T22:18:34.643Z,17.96
2023-06-10T22:21:03.281Z,17.94
2023-06-10T22:23:30.998Z,17.95
2023-06-10T22:25:58.616Z,17.96
2023-06-10T22:28:26.282Z,17.96
2023-06-10T22:30:54.878Z,17.90
2023-06-10T22:33:22.858Z,17.96
2023-06-10T22:35:50.687Z,17.91
2023-06-10T22:38:18.401Z,17.86
2023-06-10T22:40:46.113Z,17.87
2023-06-10T22:43:13.858Z,17.86
2023-06-10T22:45:41.584Z,17.82
2023-06-10T22:48:09.368Z,17.75
2023-06-10T22:50:37.585Z,17.78
2023-06-10T22:53:05.804Z,17.78
2023-06-10T22:55:34.180Z,17.79
2023-06-10T22:58:02.010Z,17.74
2023-06-10T23:00:29.688Z,17.77
2023-06-10T23:02:57.978Z,17.77
2023-06-10T23:05:25.958Z,17.75
2023-06-10T23:07:53.920Z,17.74
2023-06-10T23:10:21.685Z,17.71
2023-06-10T23:12:49.476Z,17.72
2023-06-10T23:15:17.153Z,17.71
2023-06-10T23:17:46.576Z,17.64
2023-06-10T23:20:14.452Z,17.59
2023-06-10T23:22:42.877Z,17.65
2023-06-10T23:25:10.859Z,17.62
2023-06-10T23:27:38.966Z,17.61
2023-06-10T23:30:07.373Z,17.57
2023-06-10T23:32:35.223Z,17.57
2023-06-10T23:35:03.006Z,17.55
2023-06-10T23:37:31.997Z,17.54
2023-06-10T23:39:59.625Z,17.54
2023-06-10T23:42:27.301Z,17.54
2023-06-10T23:44:55.168Z,17.52
2023-06-10T23:47:23.129Z,17.49
2023-06-10T23:49:50.841Z,17.46
2023-06-10T23:52:19.460Z,17.41
2023-06-10T23:54:47.189Z,17.36
2023-06-10T23:57:14.960Z,17.30
2023-06-10T23:59:42.819Z,17.33
